<?xml version="1.0" encoding="UTF-8"?>
<gpx version="1.1" creator="2bulu-scraper" xmlns="http://www.topografix.com/GPX/1/1">
  <metadata><name>贵州疣螈（后河）</name><desc>source: 2bulu.com trackId=87114976; exported 2026-09-01T18:36:45.666Z</desc>
    <bounds minlat="27.799226" minlon="104.2978638" maxlat="27.8289587" maxlon="104.3069753"/>
    <link href="https://www.2bulu.com/track/t-shO8zPBqkbLp%252FR2KBg5Tzw%253D%253D.htm"><text>2bulu 源页面</text></link>
  </metadata>
  <wpt lat="27.8285133" lon="104.2994783"><ele>1924</ele><name>
        </name></wpt>
  <wpt lat="27.8285133" lon="104.2994783"><ele>1924</ele><name>
        </name></wpt>
  <wpt lat="27.82852" lon="104.29949"><ele>1926</ele><name>
        </name></wpt>
  <wpt lat="27.82852" lon="104.29949"><ele>1926</ele><name>
        </name></wpt>
  <wpt lat="27.82852" lon="104.29949"><ele>1926</ele><name>生境（有水塘）
        </name></wpt>
  <wpt lat="27.8285233" lon="104.299505"><ele>1920</ele><name>
        </name></wpt>
  <wpt lat="27.8285233" lon="104.299505"><ele>1920</ele><name>
        </name></wpt>
  <wpt lat="27.82524" lon="104.2997683"><ele>1928</ele><name>
        </name></wpt>
  <wpt lat="27.82524" lon="104.2997683"><ele>1928</ele><name>
        </name></wpt>
  <wpt lat="27.8253367" lon="104.2997733"><ele>1928</ele><name>生境（有水塘）
        </name></wpt>
  <wpt lat="27.81849" lon="104.301405"><ele>1935</ele><name>
        </name></wpt>
  <wpt lat="27.81849" lon="104.301405"><ele>1935</ele><name>
        </name></wpt>
  <wpt lat="27.81849" lon="104.301405"><ele>1935</ele><name>生境（海花地）
        </name></wpt>
  <wpt lat="27.8182324" lon="104.3015856"><ele>1938</ele><name>
        </name></wpt>
  <wpt lat="27.8181741" lon="104.3015271"><ele>1936</ele><name>无
        </name></wpt>
  <wpt lat="27.8181741" lon="104.3015271"><ele>1936</ele><name>海花地
        </name></wpt>
  <wpt lat="27.8175083" lon="104.29984"><ele>1959</ele><name>
        </name></wpt>
  <wpt lat="27.8175083" lon="104.29984"><ele>1959</ele><name>
        </name></wpt>
  <wpt lat="27.8175083" lon="104.29984"><ele>1959</ele><name>生境（无水塘）
        </name></wpt>
  <wpt lat="27.81758" lon="104.29986"><ele>1957</ele><name>
        </name></wpt>
  <wpt lat="27.818085" lon="104.3008317"><ele>1960</ele><name>杉木林
        </name></wpt>
  <wpt lat="27.818085" lon="104.3008317"><ele>1960</ele><name>无
        </name></wpt>
  <wpt lat="27.818085" lon="104.3008317"><ele>1960</ele><name>无
        </name></wpt>
  <wpt lat="27.8244133" lon="104.3010333"><ele>1932</ele><name>路边
        </name></wpt>
  <wpt lat="27.8244133" lon="104.3010333"><ele>1932</ele><name>无
        </name></wpt>
  <wpt lat="27.8244217" lon="104.301035"><ele>1932</ele><name>无
        </name></wpt>
  <wpt lat="27.8126283" lon="104.3061233"><ele>1946</ele><name>沼泽地
        </name></wpt>
  <wpt lat="27.8126283" lon="104.3061233"><ele>1946</ele><name>水桶丢失
        </name></wpt>
  <wpt lat="27.8127617" lon="104.3060933"><ele>1954</ele><name>无
        </name></wpt>
  <wpt lat="27.8127617" lon="104.3060933"><ele>1954</ele><name>无
        </name></wpt>
  <wpt lat="27.8102233" lon="104.305365"><ele>1960</ele><name>生境（有水塘）
        </name></wpt>
  <wpt lat="27.8102233" lon="104.305365"><ele>1960</ele><name>
        </name></wpt>
  <wpt lat="27.8102233" lon="104.305365"><ele>1960</ele><name>
        </name></wpt>
  <wpt lat="27.810225" lon="104.3053683"><ele>1959</ele><name>
        </name></wpt>
  <wpt lat="27.810225" lon="104.3053683"><ele>1959</ele><name>
        </name></wpt>
  <wpt lat="27.806542" lon="104.303159"><ele>1963</ele><name>房子背后
        </name></wpt>
  <wpt lat="27.806542" lon="104.303159"><ele>1963</ele><name>无
        </name></wpt>
  <wpt lat="27.8066117" lon="104.30312"><ele>1966</ele><name>无
        </name></wpt>
  <wpt lat="27.8065667" lon="104.3032133"><ele>1966</ele><name>
        </name></wpt>
  <wpt lat="27.8066317" lon="104.303225"><ele>1966</ele><name>
        </name></wpt>
  <wpt lat="27.8066317" lon="104.303225"><ele>1966</ele><name>
        </name></wpt>
  <wpt lat="27.8066317" lon="104.303225"><ele>1966</ele><name>生境（竹林➕杉木林）无水塘
        </name></wpt>
  <wpt lat="27.79939" lon="104.3021317"><ele>1919</ele><name>
        </name></wpt>
  <wpt lat="27.79939" lon="104.3021317"><ele>1919</ele><name>
        </name></wpt>
  <wpt lat="27.7993667" lon="104.3021533"><ele>1921</ele><name>
        </name></wpt>
  <wpt lat="27.7993667" lon="104.3021533"><ele>1921</ele><name>生境（有水塘）
        </name></wpt>
  <wpt lat="27.7993667" lon="104.3021533"><ele>1921</ele><name>
        </name></wpt>
  <trk><name>贵州疣螈（后河）</name>
      <trkseg>
        <trkpt lat="27.8281517" lon="104.29804"><ele>1917.8</ele><time>2026-07-14T18:03:03.000Z</time></trkpt>
        <trkpt lat="27.8282167" lon="104.298115"><ele>1917.8</ele><time>2026-07-14T18:03:23.000Z</time></trkpt>
        <trkpt lat="27.8283063" lon="104.2981183"><ele>1917.46</ele><time>2026-07-14T18:03:45.000Z</time></trkpt>
        <trkpt lat="27.8284142" lon="104.2980893"><ele>1915.5</ele><time>2026-07-14T18:03:57.000Z</time></trkpt>
        <trkpt lat="27.8285215" lon="104.2980486"><ele>1914.25</ele><time>2026-07-14T18:04:09.000Z</time></trkpt>
        <trkpt lat="27.8286206" lon="104.2980208"><ele>1912.94</ele><time>2026-07-14T18:04:21.000Z</time></trkpt>
        <trkpt lat="27.828695" lon="104.2980967"><ele>1912.75</ele><time>2026-07-14T18:06:37.000Z</time></trkpt>
        <trkpt lat="27.8287417" lon="104.2981917"><ele>1910.88</ele><time>2026-07-14T18:07:21.000Z</time></trkpt>
        <trkpt lat="27.8287291" lon="104.2982909"><ele>1910.63</ele><time>2026-07-14T18:08:01.000Z</time></trkpt>
        <trkpt lat="27.8286958" lon="104.2983922"><ele>1911.31</ele><time>2026-07-14T18:08:33.000Z</time></trkpt>
        <trkpt lat="27.8285967" lon="104.2984615"><ele>1912.98</ele><time>2026-07-14T18:09:21.000Z</time></trkpt>
        <trkpt lat="27.828655" lon="104.2984183"><ele>1913.03</ele><time>2026-07-14T18:10:39.000Z</time></trkpt>
        <trkpt lat="27.8285633" lon="104.2984017"><ele>1914.44</ele><time>2026-07-14T18:11:05.000Z</time></trkpt>
        <trkpt lat="27.8284683" lon="104.29848"><ele>1914.21</ele><time>2026-07-14T18:12:23.000Z</time></trkpt>
        <trkpt lat="27.8283917" lon="104.298535"><ele>1915.02</ele><time>2026-07-14T18:13:19.000Z</time></trkpt>
        <trkpt lat="27.828339" lon="104.2986238"><ele>1919.14</ele><time>2026-07-14T18:13:31.000Z</time></trkpt>
        <trkpt lat="27.8282777" lon="104.298711"><ele>1921.4</ele><time>2026-07-14T18:13:45.000Z</time></trkpt>
        <trkpt lat="27.82822" lon="104.2987952"><ele>1921.14</ele><time>2026-07-14T18:14:03.000Z</time></trkpt>
        <trkpt lat="27.8281837" lon="104.2988905"><ele>1919.49</ele><time>2026-07-14T18:14:49.000Z</time></trkpt>
        <trkpt lat="27.8281862" lon="104.2989947"><ele>1918.08</ele><time>2026-07-14T18:15:41.000Z</time></trkpt>
        <trkpt lat="27.8283633" lon="104.2991017"><ele>1918.73</ele><time>2026-07-14T18:17:09.000Z</time></trkpt>
        <trkpt lat="27.8284683" lon="104.2992183"><ele>1920.05</ele><time>2026-07-14T18:18:39.000Z</time></trkpt>
        <trkpt lat="27.8285767" lon="104.299245"><ele>1920.93</ele><time>2026-07-14T18:20:35.000Z</time></trkpt>
        <trkpt lat="27.8285867" lon="104.2993483"><ele>1920.57</ele><time>2026-07-14T18:20:47.000Z</time></trkpt>
        <trkpt lat="27.8285133" lon="104.2994783"><ele>1920.93</ele><time>2026-07-14T18:21:53.000Z</time></trkpt>
        <trkpt lat="27.828555" lon="104.29938"><ele>1922.08</ele><time>2026-07-14T18:35:09.000Z</time></trkpt>
        <trkpt lat="27.8286067" lon="104.299285"><ele>1919.29</ele><time>2026-07-14T18:36:19.000Z</time></trkpt>
        <trkpt lat="27.8286033" lon="104.29918"><ele>1921.62</ele><time>2026-07-14T18:36:43.000Z</time></trkpt>
        <trkpt lat="27.8285986" lon="104.2990778"><ele>1921.4</ele><time>2026-07-14T18:36:55.000Z</time></trkpt>
        <trkpt lat="27.8286039" lon="104.2989736"><ele>1921.1</ele><time>2026-07-14T18:37:11.000Z</time></trkpt>
        <trkpt lat="27.8286387" lon="104.29888"><ele>1919.51</ele><time>2026-07-14T18:37:39.000Z</time></trkpt>
        <trkpt lat="27.8287717" lon="104.2988033"><ele>1918.47</ele><time>2026-07-14T18:38:41.000Z</time></trkpt>
        <trkpt lat="27.8288617" lon="104.2987667"><ele>1917.75</ele><time>2026-07-14T18:39:15.000Z</time></trkpt>
        <trkpt lat="27.8289587" lon="104.2987371"><ele>1918.46</ele><time>2026-07-14T18:39:35.000Z</time></trkpt>
        <trkpt lat="27.8289067" lon="104.298555"><ele>1918.13</ele><time>2026-07-14T18:40:49.000Z</time></trkpt>
        <trkpt lat="27.828845" lon="104.2984733"><ele>1917.47</ele><time>2026-07-14T18:41:45.000Z</time></trkpt>
        <trkpt lat="27.8288397" lon="104.2983367"><ele>1915.25</ele><time>2026-07-14T18:42:21.000Z</time></trkpt>
        <trkpt lat="27.8287969" lon="104.2982392"><ele>1914.8</ele><time>2026-07-14T18:42:37.000Z</time></trkpt>
        <trkpt lat="27.8287363" lon="104.2981624"><ele>1914.33</ele><time>2026-07-14T18:43:13.000Z</time></trkpt>
        <trkpt lat="27.8286771" lon="104.2980851"><ele>1913.28</ele><time>2026-07-14T18:43:33.000Z</time></trkpt>
        <trkpt lat="27.8286035" lon="104.298015"><ele>1912.9</ele><time>2026-07-14T18:44:07.000Z</time></trkpt>
        <trkpt lat="27.8285127" lon="104.2980056"><ele>1913.12</ele><time>2026-07-14T18:44:20.000Z</time></trkpt>
        <trkpt lat="27.8284166" lon="104.2980413"><ele>1913.88</ele><time>2026-07-14T18:44:57.000Z</time></trkpt>
        <trkpt lat="27.8283203" lon="104.2980347"><ele>1916.43</ele><time>2026-07-14T18:45:09.000Z</time></trkpt>
        <trkpt lat="27.8282262" lon="104.2980444"><ele>1918.61</ele><time>2026-07-14T18:45:23.000Z</time></trkpt>
        <trkpt lat="27.8281335" lon="104.2980576"><ele>1920.28</ele><time>2026-07-14T18:45:53.000Z</time></trkpt>
        <trkpt lat="27.8280365" lon="104.2980798"><ele>1920.29</ele><time>2026-07-14T18:46:39.000Z</time></trkpt>
        <trkpt lat="27.8279167" lon="104.2980721"><ele>1918.1</ele><time>2026-07-14T18:47:23.000Z</time></trkpt>
        <trkpt lat="27.8277662" lon="104.298059"><ele>1917.8</ele><time>2026-07-14T18:47:27.000Z</time></trkpt>
        <trkpt lat="27.827363" lon="104.2979761"><ele>1917.54</ele><time>2026-07-14T18:47:35.000Z</time></trkpt>
        <trkpt lat="27.8271417" lon="104.2979312"><ele>1916.23</ele><time>2026-07-14T18:47:37.000Z</time></trkpt>
        <trkpt lat="27.8270031" lon="104.2979071"><ele>1915.57</ele><time>2026-07-14T18:47:39.000Z</time></trkpt>
        <trkpt lat="27.8268941" lon="104.2978933"><ele>1915.37</ele><time>2026-07-14T18:47:41.000Z</time></trkpt>
        <trkpt lat="27.8267878" lon="104.2978835"><ele>1915.81</ele><time>2026-07-14T18:47:43.000Z</time></trkpt>
        <trkpt lat="27.8266792" lon="104.297874"><ele>1916.15</ele><time>2026-07-14T18:47:45.000Z</time></trkpt>
        <trkpt lat="27.8265697" lon="104.2978638"><ele>1917.03</ele><time>2026-07-14T18:47:47.000Z</time></trkpt>
        <trkpt lat="27.8264598" lon="104.297873"><ele>1917.71</ele><time>2026-07-14T18:47:49.000Z</time></trkpt>
        <trkpt lat="27.8263455" lon="104.2978953"><ele>1918.52</ele><time>2026-07-14T18:47:51.000Z</time></trkpt>
        <trkpt lat="27.8262305" lon="104.2979249"><ele>1918.77</ele><time>2026-07-14T18:47:53.000Z</time></trkpt>
        <trkpt lat="27.8261216" lon="104.2979735"><ele>1918.7</ele><time>2026-07-14T18:47:55.000Z</time></trkpt>
        <trkpt lat="27.8260237" lon="104.2980329"><ele>1918.66</ele><time>2026-07-14T18:47:58.000Z</time></trkpt>
        <trkpt lat="27.8259372" lon="104.2981033"><ele>1918.8</ele><time>2026-07-14T18:47:59.000Z</time></trkpt>
        <trkpt lat="27.8258677" lon="104.2981751"><ele>1919.15</ele><time>2026-07-14T18:48:01.000Z</time></trkpt>
        <trkpt lat="27.825806" lon="104.2982611"><ele>1919.43</ele><time>2026-07-14T18:48:03.000Z</time></trkpt>
        <trkpt lat="27.8257532" lon="104.2983802"><ele>1919.89</ele><time>2026-07-14T18:48:05.000Z</time></trkpt>
        <trkpt lat="27.8257049" lon="104.2985215"><ele>1920.32</ele><time>2026-07-14T18:48:07.000Z</time></trkpt>
        <trkpt lat="27.8256734" lon="104.2986671"><ele>1920.79</ele><time>2026-07-14T18:48:09.000Z</time></trkpt>
        <trkpt lat="27.8256547" lon="104.2988044"><ele>1921.31</ele><time>2026-07-14T18:48:11.000Z</time></trkpt>
        <trkpt lat="27.8256456" lon="104.2989395"><ele>1921.61</ele><time>2026-07-14T18:48:13.000Z</time></trkpt>
        <trkpt lat="27.8256435" lon="104.2990672"><ele>1922.12</ele><time>2026-07-14T18:48:15.000Z</time></trkpt>
        <trkpt lat="27.8256365" lon="104.2991883"><ele>1921.85</ele><time>2026-07-14T18:48:17.000Z</time></trkpt>
        <trkpt lat="27.8256129" lon="104.2992974"><ele>1921.49</ele><time>2026-07-14T18:48:19.000Z</time></trkpt>
        <trkpt lat="27.8255804" lon="104.2993601"><ele>1921.23</ele><time>2026-07-14T18:48:23.000Z</time></trkpt>
        <trkpt lat="27.8255403" lon="104.2994493"><ele>1921.05</ele><time>2026-07-14T18:49:05.000Z</time></trkpt>
        <trkpt lat="27.8254872" lon="104.2995463"><ele>1923.74</ele><time>2026-07-14T18:49:39.000Z</time></trkpt>
        <trkpt lat="27.8254251" lon="104.2996413"><ele>1924.75</ele><time>2026-07-14T18:49:55.000Z</time></trkpt>
        <trkpt lat="27.8253609" lon="104.2997339"><ele>1925.33</ele><time>2026-07-14T18:50:07.000Z</time></trkpt>
        <trkpt lat="27.825331" lon="104.2997943"><ele>1926.09</ele><time>2026-07-14T18:50:21.000Z</time></trkpt>
        <trkpt lat="27.82524" lon="104.2997683"><ele>1927.52</ele><time>2026-07-14T18:54:05.000Z</time></trkpt>
        <trkpt lat="27.8253367" lon="104.2997733"><ele>1927.59</ele><time>2026-07-14T18:55:23.000Z</time></trkpt>
        <trkpt lat="27.82529" lon="104.2998633"><ele>1927.6</ele><time>2026-07-14T18:58:39.000Z</time></trkpt>
        <trkpt lat="27.8253183" lon="104.2997567"><ele>1926.61</ele><time>2026-07-14T18:59:31.000Z</time></trkpt>
        <trkpt lat="27.825225" lon="104.2999133"><ele>1924.33</ele><time>2026-07-14T19:00:34.000Z</time></trkpt>
        <trkpt lat="27.8251583" lon="104.3000117"><ele>1926.85</ele><time>2026-07-14T19:00:35.000Z</time></trkpt>
        <trkpt lat="27.8250818" lon="104.3001326"><ele>1927.95</ele><time>2026-07-14T19:00:37.000Z</time></trkpt>
        <trkpt lat="27.8250074" lon="104.3002575"><ele>1928.62</ele><time>2026-07-14T19:00:39.000Z</time></trkpt>
        <trkpt lat="27.8249285" lon="104.3003774"><ele>1928.95</ele><time>2026-07-14T19:00:41.000Z</time></trkpt>
        <trkpt lat="27.8248407" lon="104.300489"><ele>1929.49</ele><time>2026-07-14T19:00:43.000Z</time></trkpt>
        <trkpt lat="27.8247511" lon="104.3005885"><ele>1930.23</ele><time>2026-07-14T19:00:45.000Z</time></trkpt>
        <trkpt lat="27.8246539" lon="104.3006666"><ele>1930.9</ele><time>2026-07-14T19:00:47.000Z</time></trkpt>
        <trkpt lat="27.8245545" lon="104.3007413"><ele>1931.25</ele><time>2026-07-14T19:00:49.000Z</time></trkpt>
        <trkpt lat="27.8244424" lon="104.3007953"><ele>1931.36</ele><time>2026-07-14T19:00:51.000Z</time></trkpt>
        <trkpt lat="27.8243161" lon="104.3007963"><ele>1931.85</ele><time>2026-07-14T19:00:53.000Z</time></trkpt>
        <trkpt lat="27.8241717" lon="104.3007772"><ele>1931.66</ele><time>2026-07-14T19:00:55.000Z</time></trkpt>
        <trkpt lat="27.8240133" lon="104.3007457"><ele>1930.94</ele><time>2026-07-14T19:00:57.000Z</time></trkpt>
        <trkpt lat="27.8238665" lon="104.3006929"><ele>1930.92</ele><time>2026-07-14T19:00:59.000Z</time></trkpt>
        <trkpt lat="27.8237243" lon="104.3006108"><ele>1931.13</ele><time>2026-07-14T19:01:01.000Z</time></trkpt>
        <trkpt lat="27.8235777" lon="104.3005128"><ele>1930.86</ele><time>2026-07-14T19:01:03.000Z</time></trkpt>
        <trkpt lat="27.8234345" lon="104.3004057"><ele>1931.35</ele><time>2026-07-14T19:01:05.000Z</time></trkpt>
        <trkpt lat="27.8232926" lon="104.3003089"><ele>1931.97</ele><time>2026-07-14T19:01:07.000Z</time></trkpt>
        <trkpt lat="27.8231486" lon="104.3002265"><ele>1932.76</ele><time>2026-07-14T19:01:09.000Z</time></trkpt>
        <trkpt lat="27.8230038" lon="104.3001671"><ele>1933.55</ele><time>2026-07-14T19:01:11.000Z</time></trkpt>
        <trkpt lat="27.8228537" lon="104.3001232"><ele>1934</ele><time>2026-07-14T19:01:13.000Z</time></trkpt>
        <trkpt lat="27.8226954" lon="104.300092"><ele>1934.69</ele><time>2026-07-14T19:01:15.000Z</time></trkpt>
        <trkpt lat="27.822542" lon="104.3000764"><ele>1935.6</ele><time>2026-07-14T19:01:17.000Z</time></trkpt>
        <trkpt lat="27.8223861" lon="104.3000912"><ele>1936.24</ele><time>2026-07-14T19:01:19.000Z</time></trkpt>
        <trkpt lat="27.8222179" lon="104.3001354"><ele>1936.61</ele><time>2026-07-14T19:01:21.000Z</time></trkpt>
        <trkpt lat="27.822048" lon="104.3001865"><ele>1936.69</ele><time>2026-07-14T19:01:23.000Z</time></trkpt>
        <trkpt lat="27.8218757" lon="104.300241"><ele>1936.57</ele><time>2026-07-14T19:01:25.000Z</time></trkpt>
        <trkpt lat="27.8217156" lon="104.3002846"><ele>1936.32</ele><time>2026-07-14T19:01:27.000Z</time></trkpt>
        <trkpt lat="27.821564" lon="104.3003157"><ele>1936.14</ele><time>2026-07-14T19:01:29.000Z</time></trkpt>
        <trkpt lat="27.8214152" lon="104.3003495"><ele>1936.12</ele><time>2026-07-14T19:01:31.000Z</time></trkpt>
        <trkpt lat="27.8212678" lon="104.3004051"><ele>1936.46</ele><time>2026-07-14T19:01:33.000Z</time></trkpt>
        <trkpt lat="27.8211343" lon="104.3004713"><ele>1937.08</ele><time>2026-07-14T19:01:35.000Z</time></trkpt>
        <trkpt lat="27.8210129" lon="104.3005303"><ele>1937.65</ele><time>2026-07-14T19:01:37.000Z</time></trkpt>
        <trkpt lat="27.8208938" lon="104.3005743"><ele>1938.36</ele><time>2026-07-14T19:01:39.000Z</time></trkpt>
        <trkpt lat="27.8207744" lon="104.3006062"><ele>1938.68</ele><time>2026-07-14T19:01:41.000Z</time></trkpt>
        <trkpt lat="27.8206491" lon="104.300642"><ele>1938.77</ele><time>2026-07-14T19:01:43.000Z</time></trkpt>
        <trkpt lat="27.8205262" lon="104.3006815"><ele>1938.83</ele><time>2026-07-14T19:01:45.000Z</time></trkpt>
        <trkpt lat="27.8204119" lon="104.3007315"><ele>1938.69</ele><time>2026-07-14T19:01:47.000Z</time></trkpt>
        <trkpt lat="27.820312" lon="104.3008002"><ele>1938.18</ele><time>2026-07-14T19:01:49.000Z</time></trkpt>
        <trkpt lat="27.8202142" lon="104.3008891"><ele>1937.97</ele><time>2026-07-14T19:01:51.000Z</time></trkpt>
        <trkpt lat="27.8201125" lon="104.3009801"><ele>1937.38</ele><time>2026-07-14T19:01:53.000Z</time></trkpt>
        <trkpt lat="27.8200061" lon="104.3010777"><ele>1936.62</ele><time>2026-07-14T19:01:55.000Z</time></trkpt>
        <trkpt lat="27.8198978" lon="104.3011816"><ele>1936.65</ele><time>2026-07-14T19:01:57.000Z</time></trkpt>
        <trkpt lat="27.8197829" lon="104.3012731"><ele>1937.62</ele><time>2026-07-14T19:01:59.000Z</time></trkpt>
        <trkpt lat="27.8196531" lon="104.3013492"><ele>1939.16</ele><time>2026-07-14T19:02:01.000Z</time></trkpt>
        <trkpt lat="27.8195084" lon="104.3014186"><ele>1940.64</ele><time>2026-07-14T19:02:03.000Z</time></trkpt>
        <trkpt lat="27.819363" lon="104.3014941"><ele>1941.87</ele><time>2026-07-14T19:02:05.000Z</time></trkpt>
        <trkpt lat="27.81923" lon="104.3015727"><ele>1942.53</ele><time>2026-07-14T19:02:07.000Z</time></trkpt>
        <trkpt lat="27.8191061" lon="104.3016488"><ele>1942.82</ele><time>2026-07-14T19:02:09.000Z</time></trkpt>
        <trkpt lat="27.818999" lon="104.3017127"><ele>1943.07</ele><time>2026-07-14T19:02:11.000Z</time></trkpt>
        <trkpt lat="27.8188875" lon="104.3018072"><ele>1942.82</ele><time>2026-07-14T19:02:15.000Z</time></trkpt>
        <trkpt lat="27.8188493" lon="104.3018484"><ele>1943.2</ele><time>2026-07-14T19:02:17.000Z</time></trkpt>
        <trkpt lat="27.81877" lon="104.301705"><ele>1943.29</ele><time>2026-07-14T19:03:47.000Z</time></trkpt>
        <trkpt lat="27.8187033" lon="104.30162"><ele>1941.74</ele><time>2026-07-14T19:04:11.000Z</time></trkpt>
        <trkpt lat="27.81861" lon="104.30154"><ele>1940.82</ele><time>2026-07-14T19:05:21.000Z</time></trkpt>
        <trkpt lat="27.8185333" lon="104.3014733"><ele>1938.83</ele><time>2026-07-14T19:06:01.000Z</time></trkpt>
        <trkpt lat="27.8185417" lon="104.30137"><ele>1936.75</ele><time>2026-07-14T19:12:33.000Z</time></trkpt>
        <trkpt lat="27.8184767" lon="104.3014517"><ele>1936.6</ele><time>2026-07-14T19:13:59.000Z</time></trkpt>
        <trkpt lat="27.8184" lon="104.3015133"><ele>1936.73</ele><time>2026-07-14T19:14:15.000Z</time></trkpt>
        <trkpt lat="27.8183121" lon="104.3015397"><ele>1936.93</ele><time>2026-07-14T19:14:31.000Z</time></trkpt>
        <trkpt lat="27.8182324" lon="104.3015856"><ele>1937.22</ele><time>2026-07-14T19:15:07.000Z</time></trkpt>
        <trkpt lat="27.8181741" lon="104.3015271"><ele>1937.56</ele><time>2026-07-14T19:15:49.000Z</time></trkpt>
        <trkpt lat="27.8181059" lon="104.3014584"><ele>1936.93</ele><time>2026-07-14T19:16:39.000Z</time></trkpt>
        <trkpt lat="27.8180366" lon="104.3013735"><ele>1936.62</ele><time>2026-07-14T19:16:59.000Z</time></trkpt>
        <trkpt lat="27.817968" lon="104.3012926"><ele>1936.78</ele><time>2026-07-14T19:17:17.000Z</time></trkpt>
        <trkpt lat="27.817881" lon="104.3012723"><ele>1936.62</ele><time>2026-07-14T19:17:33.000Z</time></trkpt>
        <trkpt lat="27.8178021" lon="104.3012166"><ele>1936.78</ele><time>2026-07-14T19:17:53.000Z</time></trkpt>
        <trkpt lat="27.8177222" lon="104.301159"><ele>1936.62</ele><time>2026-07-14T19:18:09.000Z</time></trkpt>
        <trkpt lat="27.8176283" lon="104.30111"><ele>1936.87</ele><time>2026-07-14T19:19:00.000Z</time></trkpt>
        <trkpt lat="27.8175493" lon="104.3010521"><ele>1938.26</ele><time>2026-07-14T19:19:17.000Z</time></trkpt>
        <trkpt lat="27.8174905" lon="104.3009718"><ele>1938.88</ele><time>2026-07-14T19:19:41.000Z</time></trkpt>
        <trkpt lat="27.8174623" lon="104.30087"><ele>1940.14</ele><time>2026-07-14T19:20:03.000Z</time></trkpt>
        <trkpt lat="27.81757" lon="104.30073"><ele>1940.51</ele><time>2026-07-14T19:21:11.000Z</time></trkpt>
        <trkpt lat="27.817615" lon="104.30062"><ele>1942.14</ele><time>2026-07-14T19:21:39.000Z</time></trkpt>
        <trkpt lat="27.8177023" lon="104.3005833"><ele>1945.43</ele><time>2026-07-14T19:21:57.000Z</time></trkpt>
        <trkpt lat="27.8178164" lon="104.3005584"><ele>1948.34</ele><time>2026-07-14T19:22:27.000Z</time></trkpt>
        <trkpt lat="27.817815" lon="104.3004217"><ele>1950.43</ele><time>2026-07-14T19:23:33.000Z</time></trkpt>
        <trkpt lat="27.8177317" lon="104.3003533"><ele>1953.9</ele><time>2026-07-14T19:23:47.000Z</time></trkpt>
        <trkpt lat="27.8176356" lon="104.3002145"><ele>1956.05</ele><time>2026-07-14T19:24:21.000Z</time></trkpt>
        <trkpt lat="27.8174975" lon="104.3000799"><ele>1956.93</ele><time>2026-07-14T19:25:15.000Z</time></trkpt>
        <trkpt lat="27.8174439" lon="104.29995"><ele>1958.77</ele><time>2026-07-14T19:25:39.000Z</time></trkpt>
        <trkpt lat="27.8173959" lon="104.2998489"><ele>1959.26</ele><time>2026-07-14T19:25:57.000Z</time></trkpt>
        <trkpt lat="27.8175083" lon="104.29984"><ele>1960.44</ele><time>2026-07-14T19:27:31.000Z</time></trkpt>
        <trkpt lat="27.817435" lon="104.29995"><ele>1959.82</ele><time>2026-07-14T19:31:51.000Z</time></trkpt>
        <trkpt lat="27.8175067" lon="104.3001067"><ele>1959.42</ele><time>2026-07-14T19:32:25.000Z</time></trkpt>
        <trkpt lat="27.8176446" lon="104.3002112"><ele>1959.07</ele><time>2026-07-14T19:33:15.000Z</time></trkpt>
        <trkpt lat="27.8177081" lon="104.3003077"><ele>1958.09</ele><time>2026-07-14T19:33:33.000Z</time></trkpt>
        <trkpt lat="27.8177926" lon="104.3003965"><ele>1957.92</ele><time>2026-07-14T19:33:57.000Z</time></trkpt>
        <trkpt lat="27.8178746" lon="104.3004671"><ele>1957.7</ele><time>2026-07-14T19:34:07.000Z</time></trkpt>
        <trkpt lat="27.8179484" lon="104.3005561"><ele>1958.95</ele><time>2026-07-14T19:34:35.000Z</time></trkpt>
        <trkpt lat="27.8180157" lon="104.3006298"><ele>1959.36</ele><time>2026-07-14T19:34:53.000Z</time></trkpt>
        <trkpt lat="27.8180836" lon="104.300699"><ele>1958.21</ele><time>2026-07-14T19:35:09.000Z</time></trkpt>
        <trkpt lat="27.818085" lon="104.3008317"><ele>1956.62</ele><time>2026-07-14T19:36:11.000Z</time></trkpt>
        <trkpt lat="27.81815" lon="104.3007567"><ele>1957.86</ele><time>2026-07-14T19:39:17.000Z</time></trkpt>
        <trkpt lat="27.8182283" lon="104.3008067"><ele>1954.26</ele><time>2026-07-14T19:39:31.000Z</time></trkpt>
        <trkpt lat="27.8183391" lon="104.3008778"><ele>1952.86</ele><time>2026-07-14T19:40:15.000Z</time></trkpt>
        <trkpt lat="27.8183746" lon="104.3009772"><ele>1951.11</ele><time>2026-07-14T19:40:35.000Z</time></trkpt>
        <trkpt lat="27.8183954" lon="104.3010817"><ele>1949.26</ele><time>2026-07-14T19:40:59.000Z</time></trkpt>
        <trkpt lat="27.8184591" lon="104.3011481"><ele>1946.69</ele><time>2026-07-14T19:41:17.000Z</time></trkpt>
        <trkpt lat="27.8185472" lon="104.3012119"><ele>1944.68</ele><time>2026-07-14T19:41:59.000Z</time></trkpt>
        <trkpt lat="27.8186356" lon="104.3012785"><ele>1941.33</ele><time>2026-07-14T19:42:57.000Z</time></trkpt>
        <trkpt lat="27.8186359" lon="104.3013758"><ele>1941.66</ele><time>2026-07-14T19:43:26.000Z</time></trkpt>
        <trkpt lat="27.8186369" lon="104.3014821"><ele>1941.03</ele><time>2026-07-14T19:43:41.000Z</time></trkpt>
        <trkpt lat="27.8186599" lon="104.3015815"><ele>1940.29</ele><time>2026-07-14T19:44:05.000Z</time></trkpt>
        <trkpt lat="27.8187467" lon="104.3016683"><ele>1938.83</ele><time>2026-07-14T19:45:23.000Z</time></trkpt>
        <trkpt lat="27.8188083" lon="104.3017667"><ele>1938.04</ele><time>2026-07-14T19:45:45.000Z</time></trkpt>
        <trkpt lat="27.8188799" lon="104.3018481"><ele>1937.98</ele><time>2026-07-14T19:46:01.000Z</time></trkpt>
        <trkpt lat="27.8189667" lon="104.3017783"><ele>1938.16</ele><time>2026-07-14T19:51:58.000Z</time></trkpt>
        <trkpt lat="27.8190667" lon="104.3016867"><ele>1942.82</ele><time>2026-07-14T19:52:02.000Z</time></trkpt>
        <trkpt lat="27.8191991" lon="104.3015922"><ele>1945.7</ele><time>2026-07-14T19:52:06.000Z</time></trkpt>
        <trkpt lat="27.819291" lon="104.3015306"><ele>1947.42</ele><time>2026-07-14T19:52:08.000Z</time></trkpt>
        <trkpt lat="27.819418" lon="104.3014505"><ele>1948.74</ele><time>2026-07-14T19:52:12.000Z</time></trkpt>
        <trkpt lat="27.8195396" lon="104.3013803"><ele>1949.67</ele><time>2026-07-14T19:52:16.000Z</time></trkpt>
        <trkpt lat="27.819647" lon="104.3013251"><ele>1950.41</ele><time>2026-07-14T19:52:20.000Z</time></trkpt>
        <trkpt lat="27.8197651" lon="104.3012548"><ele>1950.75</ele><time>2026-07-14T19:52:24.000Z</time></trkpt>
        <trkpt lat="27.8198939" lon="104.3011742"><ele>1950.51</ele><time>2026-07-14T19:52:28.000Z</time></trkpt>
        <trkpt lat="27.8200289" lon="104.3010513"><ele>1950.85</ele><time>2026-07-14T19:52:32.000Z</time></trkpt>
        <trkpt lat="27.8201179" lon="104.3009686"><ele>1950.66</ele><time>2026-07-14T19:52:34.000Z</time></trkpt>
        <trkpt lat="27.8202394" lon="104.3008721"><ele>1949.73</ele><time>2026-07-14T19:52:38.000Z</time></trkpt>
        <trkpt lat="27.8203674" lon="104.3007735"><ele>1948.9</ele><time>2026-07-14T19:52:42.000Z</time></trkpt>
        <trkpt lat="27.8205172" lon="104.3006682"><ele>1948</ele><time>2026-07-14T19:52:46.000Z</time></trkpt>
        <trkpt lat="27.8206442" lon="104.3006096"><ele>1947.48</ele><time>2026-07-14T19:52:48.000Z</time></trkpt>
        <trkpt lat="27.8207801" lon="104.3005648"><ele>1946.93</ele><time>2026-07-14T19:52:50.000Z</time></trkpt>
        <trkpt lat="27.8209196" lon="104.3005253"><ele>1944.85</ele><time>2026-07-14T19:52:52.000Z</time></trkpt>
        <trkpt lat="27.8210577" lon="104.300482"><ele>1942.42</ele><time>2026-07-14T19:52:54.000Z</time></trkpt>
        <trkpt lat="27.8211912" lon="104.300431"><ele>1940.18</ele><time>2026-07-14T19:52:56.000Z</time></trkpt>
        <trkpt lat="27.8213191" lon="104.3003804"><ele>1938.04</ele><time>2026-07-14T19:52:58.000Z</time></trkpt>
        <trkpt lat="27.821439" lon="104.3003313"><ele>1936.3</ele><time>2026-07-14T19:53:00.000Z</time></trkpt>
        <trkpt lat="27.8215613" lon="104.3002942"><ele>1934.92</ele><time>2026-07-14T19:53:02.000Z</time></trkpt>
        <trkpt lat="27.8216727" lon="104.3002677"><ele>1933.32</ele><time>2026-07-14T19:53:04.000Z</time></trkpt>
        <trkpt lat="27.8217865" lon="104.3002493"><ele>1931.81</ele><time>2026-07-14T19:53:06.000Z</time></trkpt>
        <trkpt lat="27.8218994" lon="104.3002317"><ele>1930.94</ele><time>2026-07-14T19:53:08.000Z</time></trkpt>
        <trkpt lat="27.8220148" lon="104.300206"><ele>1930.32</ele><time>2026-07-14T19:53:10.000Z</time></trkpt>
        <trkpt lat="27.8221349" lon="104.3001829"><ele>1929.54</ele><time>2026-07-14T19:53:12.000Z</time></trkpt>
        <trkpt lat="27.8222581" lon="104.3001611"><ele>1928.66</ele><time>2026-07-14T19:53:14.000Z</time></trkpt>
        <trkpt lat="27.8223695" lon="104.3001333"><ele>1928.38</ele><time>2026-07-14T19:53:16.000Z</time></trkpt>
        <trkpt lat="27.8224651" lon="104.3001158"><ele>1929.2</ele><time>2026-07-14T19:53:18.000Z</time></trkpt>
        <trkpt lat="27.8225591" lon="104.3001123"><ele>1930.36</ele><time>2026-07-14T19:53:20.000Z</time></trkpt>
        <trkpt lat="27.8226574" lon="104.3001148"><ele>1931.67</ele><time>2026-07-14T19:53:22.000Z</time></trkpt>
        <trkpt lat="27.8227643" lon="104.3001298"><ele>1932.5</ele><time>2026-07-14T19:53:24.000Z</time></trkpt>
        <trkpt lat="27.8228743" lon="104.3001485"><ele>1933.19</ele><time>2026-07-14T19:53:26.000Z</time></trkpt>
        <trkpt lat="27.8229852" lon="104.3001736"><ele>1934.14</ele><time>2026-07-14T19:53:28.000Z</time></trkpt>
        <trkpt lat="27.8230984" lon="104.3002078"><ele>1935.11</ele><time>2026-07-14T19:53:30.000Z</time></trkpt>
        <trkpt lat="27.823221" lon="104.3002533"><ele>1935.36</ele><time>2026-07-14T19:53:32.000Z</time></trkpt>
        <trkpt lat="27.8233393" lon="104.3003121"><ele>1934.99</ele><time>2026-07-14T19:53:34.000Z</time></trkpt>
        <trkpt lat="27.8234491" lon="104.3003796"><ele>1934.48</ele><time>2026-07-14T19:53:37.000Z</time></trkpt>
        <trkpt lat="27.8235407" lon="104.3004452"><ele>1933.76</ele><time>2026-07-14T19:53:38.000Z</time></trkpt>
        <trkpt lat="27.8236222" lon="104.3004989"><ele>1933.35</ele><time>2026-07-14T19:53:40.000Z</time></trkpt>
        <trkpt lat="27.8237476" lon="104.3005904"><ele>1933.11</ele><time>2026-07-14T19:53:44.000Z</time></trkpt>
        <trkpt lat="27.823849" lon="104.3006559"><ele>1933.36</ele><time>2026-07-14T19:53:46.000Z</time></trkpt>
        <trkpt lat="27.8239385" lon="104.3007051"><ele>1933.47</ele><time>2026-07-14T19:53:48.000Z</time></trkpt>
        <trkpt lat="27.8240666" lon="104.3007488"><ele>1933.78</ele><time>2026-07-14T19:53:52.000Z</time></trkpt>
        <trkpt lat="27.8241233" lon="104.300764"><ele>1933.32</ele><time>2026-07-14T19:53:54.000Z</time></trkpt>
        <trkpt lat="27.8242036" lon="104.3007734"><ele>1932.92</ele><time>2026-07-14T19:54:26.000Z</time></trkpt>
        <trkpt lat="27.8242955" lon="104.3007753"><ele>1935.71</ele><time>2026-07-14T19:54:36.000Z</time></trkpt>
        <trkpt lat="27.824387" lon="104.3007833"><ele>1937.25</ele><time>2026-07-14T19:54:46.000Z</time></trkpt>
        <trkpt lat="27.8244217" lon="104.3009267"><ele>1938.26</ele><time>2026-07-14T19:57:18.000Z</time></trkpt>
        <trkpt lat="27.8244133" lon="104.3010333"><ele>1936.95</ele><time>2026-07-14T19:57:36.000Z</time></trkpt>
        <trkpt lat="27.8244167" lon="104.30093"><ele>1934.95</ele><time>2026-07-14T20:00:12.000Z</time></trkpt>
        <trkpt lat="27.8243967" lon="104.3008017"><ele>1938.45</ele><time>2026-07-14T20:07:04.000Z</time></trkpt>
        <trkpt lat="27.82423" lon="104.3007533"><ele>1936.02</ele><time>2026-07-14T20:08:34.000Z</time></trkpt>
        <trkpt lat="27.8240883" lon="104.300745"><ele>1937.17</ele><time>2026-07-14T20:08:36.000Z</time></trkpt>
        <trkpt lat="27.8239509" lon="104.3007014"><ele>1937.27</ele><time>2026-07-14T20:08:38.000Z</time></trkpt>
        <trkpt lat="27.8238026" lon="104.300622"><ele>1936.47</ele><time>2026-07-14T20:08:40.000Z</time></trkpt>
        <trkpt lat="27.8236422" lon="104.3005224"><ele>1935.84</ele><time>2026-07-14T20:08:42.000Z</time></trkpt>
        <trkpt lat="27.823479" lon="104.3004171"><ele>1935.65</ele><time>2026-07-14T20:08:44.000Z</time></trkpt>
        <trkpt lat="27.8233155" lon="104.3003008"><ele>1935.63</ele><time>2026-07-14T20:08:46.000Z</time></trkpt>
        <trkpt lat="27.8231601" lon="104.3001973"><ele>1935.49</ele><time>2026-07-14T20:08:48.000Z</time></trkpt>
        <trkpt lat="27.8229931" lon="104.3001288"><ele>1935.32</ele><time>2026-07-14T20:08:50.000Z</time></trkpt>
        <trkpt lat="27.8228164" lon="104.3000794"><ele>1934.71</ele><time>2026-07-14T20:08:52.000Z</time></trkpt>
        <trkpt lat="27.8226331" lon="104.3000576"><ele>1934.32</ele><time>2026-07-14T20:08:54.000Z</time></trkpt>
        <trkpt lat="27.8224581" lon="104.3000615"><ele>1934.7</ele><time>2026-07-14T20:08:56.000Z</time></trkpt>
        <trkpt lat="27.8222882" lon="104.3001022"><ele>1934.83</ele><time>2026-07-14T20:08:58.000Z</time></trkpt>
        <trkpt lat="27.8220988" lon="104.3001649"><ele>1934.82</ele><time>2026-07-14T20:09:00.000Z</time></trkpt>
        <trkpt lat="27.821902" lon="104.3002233"><ele>1935.33</ele><time>2026-07-14T20:09:02.000Z</time></trkpt>
        <trkpt lat="27.8217022" lon="104.3002733"><ele>1935.36</ele><time>2026-07-14T20:09:04.000Z</time></trkpt>
        <trkpt lat="27.8215121" lon="104.3003164"><ele>1934.56</ele><time>2026-07-14T20:09:06.000Z</time></trkpt>
        <trkpt lat="27.8213301" lon="104.3003705"><ele>1933.76</ele><time>2026-07-14T20:09:08.000Z</time></trkpt>
        <trkpt lat="27.8211494" lon="104.3004575"><ele>1933.91</ele><time>2026-07-14T20:09:10.000Z</time></trkpt>
        <trkpt lat="27.8209651" lon="104.3005374"><ele>1934.08</ele><time>2026-07-14T20:09:12.000Z</time></trkpt>
        <trkpt lat="27.8207714" lon="104.3005989"><ele>1934.9</ele><time>2026-07-14T20:09:14.000Z</time></trkpt>
        <trkpt lat="27.8205744" lon="104.3006541"><ele>1935.63</ele><time>2026-07-14T20:09:16.000Z</time></trkpt>
        <trkpt lat="27.8203942" lon="104.300739"><ele>1935.27</ele><time>2026-07-14T20:09:18.000Z</time></trkpt>
        <trkpt lat="27.8202357" lon="104.3008618"><ele>1934.94</ele><time>2026-07-14T20:09:20.000Z</time></trkpt>
        <trkpt lat="27.8200705" lon="104.3010008"><ele>1934.84</ele><time>2026-07-14T20:09:22.000Z</time></trkpt>
        <trkpt lat="27.8199027" lon="104.3011481"><ele>1934.99</ele><time>2026-07-14T20:09:24.000Z</time></trkpt>
        <trkpt lat="27.8197285" lon="104.3012872"><ele>1935.64</ele><time>2026-07-14T20:09:26.000Z</time></trkpt>
        <trkpt lat="27.8195405" lon="104.3013992"><ele>1936.31</ele><time>2026-07-14T20:09:28.000Z</time></trkpt>
        <trkpt lat="27.8193491" lon="104.301502"><ele>1937.21</ele><time>2026-07-14T20:09:30.000Z</time></trkpt>
        <trkpt lat="27.8191711" lon="104.3016028"><ele>1938.32</ele><time>2026-07-14T20:09:32.000Z</time></trkpt>
        <trkpt lat="27.8190199" lon="104.3017014"><ele>1940.12</ele><time>2026-07-14T20:09:34.000Z</time></trkpt>
        <trkpt lat="27.818897" lon="104.30181"><ele>1942.22</ele><time>2026-07-14T20:09:36.000Z</time></trkpt>
        <trkpt lat="27.8187739" lon="104.3019403"><ele>1942.56</ele><time>2026-07-14T20:09:38.000Z</time></trkpt>
        <trkpt lat="27.8186384" lon="104.3020907"><ele>1942.23</ele><time>2026-07-14T20:09:40.000Z</time></trkpt>
        <trkpt lat="27.8185007" lon="104.302261"><ele>1941.83</ele><time>2026-07-14T20:09:42.000Z</time></trkpt>
        <trkpt lat="27.8183585" lon="104.3024542"><ele>1942.16</ele><time>2026-07-14T20:09:44.000Z</time></trkpt>
        <trkpt lat="27.8182198" lon="104.3026575"><ele>1943.08</ele><time>2026-07-14T20:09:46.000Z</time></trkpt>
        <trkpt lat="27.8180965" lon="104.3028458"><ele>1943.91</ele><time>2026-07-14T20:09:48.000Z</time></trkpt>
        <trkpt lat="27.8179938" lon="104.303022"><ele>1944.59</ele><time>2026-07-14T20:09:50.000Z</time></trkpt>
        <trkpt lat="27.8179077" lon="104.3031722"><ele>1945.11</ele><time>2026-07-14T20:09:52.000Z</time></trkpt>
        <trkpt lat="27.8178187" lon="104.303296"><ele>1945.75</ele><time>2026-07-14T20:09:54.000Z</time></trkpt>
        <trkpt lat="27.8176504" lon="104.3034094"><ele>1946.03</ele><time>2026-07-14T20:09:57.000Z</time></trkpt>
        <trkpt lat="27.8174975" lon="104.3034838"><ele>1945.8</ele><time>2026-07-14T20:09:59.000Z</time></trkpt>
        <trkpt lat="27.8173692" lon="104.3035595"><ele>1946.15</ele><time>2026-07-14T20:10:01.000Z</time></trkpt>
        <trkpt lat="27.8172599" lon="104.3036576"><ele>1946.51</ele><time>2026-07-14T20:10:03.000Z</time></trkpt>
        <trkpt lat="27.817153" lon="104.3037718"><ele>1946.59</ele><time>2026-07-14T20:10:05.000Z</time></trkpt>
        <trkpt lat="27.8170569" lon="104.3039077"><ele>1946.64</ele><time>2026-07-14T20:10:07.000Z</time></trkpt>
        <trkpt lat="27.8169739" lon="104.3040404"><ele>1946.84</ele><time>2026-07-14T20:10:09.000Z</time></trkpt>
        <trkpt lat="27.8168997" lon="104.3041564"><ele>1947.51</ele><time>2026-07-14T20:10:11.000Z</time></trkpt>
        <trkpt lat="27.8168211" lon="104.3042631"><ele>1948.11</ele><time>2026-07-14T20:10:13.000Z</time></trkpt>
        <trkpt lat="27.8167297" lon="104.3043054"><ele>1948.49</ele><time>2026-07-14T20:10:15.000Z</time></trkpt>
        <trkpt lat="27.816622" lon="104.3043013"><ele>1948.5</ele><time>2026-07-14T20:10:17.000Z</time></trkpt>
        <trkpt lat="27.8165114" lon="104.3042804"><ele>1947.59</ele><time>2026-07-14T20:10:19.000Z</time></trkpt>
        <trkpt lat="27.8164046" lon="104.3042655"><ele>1946.74</ele><time>2026-07-14T20:10:21.000Z</time></trkpt>
        <trkpt lat="27.8163037" lon="104.3042374"><ele>1946.2</ele><time>2026-07-14T20:10:23.000Z</time></trkpt>
        <trkpt lat="27.8161902" lon="104.304226"><ele>1945.94</ele><time>2026-07-14T20:10:25.000Z</time></trkpt>
        <trkpt lat="27.8160831" lon="104.3042133"><ele>1945.84</ele><time>2026-07-14T20:10:27.000Z</time></trkpt>
        <trkpt lat="27.815925" lon="104.3042102"><ele>1945.82</ele><time>2026-07-14T20:10:31.000Z</time></trkpt>
        <trkpt lat="27.8157634" lon="104.304208"><ele>1946.2</ele><time>2026-07-14T20:10:35.000Z</time></trkpt>
        <trkpt lat="27.8156195" lon="104.3042094"><ele>1947.19</ele><time>2026-07-14T20:10:39.000Z</time></trkpt>
        <trkpt lat="27.8154637" lon="104.3042056"><ele>1947.15</ele><time>2026-07-14T20:10:43.000Z</time></trkpt>
        <trkpt lat="27.8152846" lon="104.3042107"><ele>1947.26</ele><time>2026-07-14T20:10:47.000Z</time></trkpt>
        <trkpt lat="27.8151491" lon="104.3042367"><ele>1947.19</ele><time>2026-07-14T20:10:49.000Z</time></trkpt>
        <trkpt lat="27.8150322" lon="104.3042811"><ele>1947.15</ele><time>2026-07-14T20:10:51.000Z</time></trkpt>
        <trkpt lat="27.8149407" lon="104.3043385"><ele>1947.3</ele><time>2026-07-14T20:10:53.000Z</time></trkpt>
        <trkpt lat="27.8148328" lon="104.3044401"><ele>1947.6</ele><time>2026-07-14T20:10:57.000Z</time></trkpt>
        <trkpt lat="27.8147417" lon="104.3045651"><ele>1949.36</ele><time>2026-07-14T20:11:01.000Z</time></trkpt>
        <trkpt lat="27.8147088" lon="104.3046827"><ele>1951.06</ele><time>2026-07-14T20:11:03.000Z</time></trkpt>
        <trkpt lat="27.8146874" lon="104.3048047"><ele>1951.94</ele><time>2026-07-14T20:11:05.000Z</time></trkpt>
        <trkpt lat="27.8146815" lon="104.3049346"><ele>1952.22</ele><time>2026-07-14T20:11:07.000Z</time></trkpt>
        <trkpt lat="27.8146747" lon="104.3050702"><ele>1952.51</ele><time>2026-07-14T20:11:09.000Z</time></trkpt>
        <trkpt lat="27.8146617" lon="104.3052071"><ele>1952.85</ele><time>2026-07-14T20:11:11.000Z</time></trkpt>
        <trkpt lat="27.8146227" lon="104.3053335"><ele>1953.09</ele><time>2026-07-14T20:11:13.000Z</time></trkpt>
        <trkpt lat="27.8145677" lon="104.3054457"><ele>1953.18</ele><time>2026-07-14T20:11:15.000Z</time></trkpt>
        <trkpt lat="27.8144831" lon="104.3055442"><ele>1953.32</ele><time>2026-07-14T20:11:17.000Z</time></trkpt>
        <trkpt lat="27.8143805" lon="104.3056362"><ele>1953.95</ele><time>2026-07-14T20:11:19.000Z</time></trkpt>
        <trkpt lat="27.8142637" lon="104.3057157"><ele>1954.36</ele><time>2026-07-14T20:11:21.000Z</time></trkpt>
        <trkpt lat="27.8141377" lon="104.3057943"><ele>1954.46</ele><time>2026-07-14T20:11:23.000Z</time></trkpt>
        <trkpt lat="27.8140054" lon="104.3058611"><ele>1954.57</ele><time>2026-07-14T20:11:25.000Z</time></trkpt>
        <trkpt lat="27.8138623" lon="104.3058944"><ele>1954.49</ele><time>2026-07-14T20:11:27.000Z</time></trkpt>
        <trkpt lat="27.8137202" lon="104.3059151"><ele>1954.5</ele><time>2026-07-14T20:11:29.000Z</time></trkpt>
        <trkpt lat="27.813596" lon="104.3059474"><ele>1954.54</ele><time>2026-07-14T20:11:31.000Z</time></trkpt>
        <trkpt lat="27.8134939" lon="104.3060072"><ele>1954.44</ele><time>2026-07-14T20:11:33.000Z</time></trkpt>
        <trkpt lat="27.813428" lon="104.3061025"><ele>1954.89</ele><time>2026-07-14T20:11:35.000Z</time></trkpt>
        <trkpt lat="27.8133901" lon="104.3062194"><ele>1955.46</ele><time>2026-07-14T20:11:37.000Z</time></trkpt>
        <trkpt lat="27.8133796" lon="104.3063429"><ele>1955.86</ele><time>2026-07-14T20:11:39.000Z</time></trkpt>
        <trkpt lat="27.8133948" lon="104.3064724"><ele>1956.18</ele><time>2026-07-14T20:11:41.000Z</time></trkpt>
        <trkpt lat="27.8134164" lon="104.306595"><ele>1956.49</ele><time>2026-07-14T20:11:43.000Z</time></trkpt>
        <trkpt lat="27.8134298" lon="104.3067024"><ele>1956.75</ele><time>2026-07-14T20:11:45.000Z</time></trkpt>
        <trkpt lat="27.8133655" lon="104.3068404"><ele>1956.73</ele><time>2026-07-14T20:11:49.000Z</time></trkpt>
        <trkpt lat="27.8133248" lon="104.3068975"><ele>1955.68</ele><time>2026-07-14T20:11:51.000Z</time></trkpt>
        <trkpt lat="27.8132391" lon="104.3069401"><ele>1954.83</ele><time>2026-07-14T20:12:25.000Z</time></trkpt>
        <trkpt lat="27.8130927" lon="104.306951"><ele>1954.34</ele><time>2026-07-14T20:12:29.000Z</time></trkpt>
        <trkpt lat="27.8129508" lon="104.3068968"><ele>1953.85</ele><time>2026-07-14T20:12:33.000Z</time></trkpt>
        <trkpt lat="27.8128554" lon="104.3067845"><ele>1953.44</ele><time>2026-07-14T20:12:37.000Z</time></trkpt>
        <trkpt lat="27.8127982" lon="104.3066374"><ele>1953.25</ele><time>2026-07-14T20:12:43.000Z</time></trkpt>
        <trkpt lat="27.8127561" lon="104.3065161"><ele>1952.84</ele><time>2026-07-14T20:12:47.000Z</time></trkpt>
        <trkpt lat="27.8127067" lon="104.3063993"><ele>1952.27</ele><time>2026-07-14T20:12:51.000Z</time></trkpt>
        <trkpt lat="27.8126473" lon="104.3063017"><ele>1951.68</ele><time>2026-07-14T20:12:55.000Z</time></trkpt>
        <trkpt lat="27.8126161" lon="104.3062529"><ele>1951.6</ele><time>2026-07-14T20:13:00.000Z</time></trkpt>
        <trkpt lat="27.8125551" lon="104.3061948"><ele>1951.82</ele><time>2026-07-14T20:13:17.000Z</time></trkpt>
        <trkpt lat="27.8125294" lon="104.3061527"><ele>1952.58</ele><time>2026-07-14T20:13:29.000Z</time></trkpt>
        <trkpt lat="27.8126283" lon="104.3061233"><ele>1953.49</ele><time>2026-07-14T20:16:07.000Z</time></trkpt>
        <trkpt lat="27.8127617" lon="104.3060933"><ele>1950.23</ele><time>2026-07-14T20:17:05.000Z</time></trkpt>
        <trkpt lat="27.812675" lon="104.3061267"><ele>1951.98</ele><time>2026-07-14T20:19:15.000Z</time></trkpt>
        <trkpt lat="27.8125833" lon="104.3061133"><ele>1951.95</ele><time>2026-07-14T20:19:35.000Z</time></trkpt>
        <trkpt lat="27.8124804" lon="104.3061268"><ele>1950.94</ele><time>2026-07-14T20:20:33.000Z</time></trkpt>
        <trkpt lat="27.812315" lon="104.3060459"><ele>1951.65</ele><time>2026-07-14T20:20:37.000Z</time></trkpt>
        <trkpt lat="27.8121801" lon="104.3059721"><ele>1952.66</ele><time>2026-07-14T20:20:39.000Z</time></trkpt>
        <trkpt lat="27.8120596" lon="104.305882"><ele>1953.28</ele><time>2026-07-14T20:20:41.000Z</time></trkpt>
        <trkpt lat="27.8119408" lon="104.3058028"><ele>1953.07</ele><time>2026-07-14T20:20:43.000Z</time></trkpt>
        <trkpt lat="27.8118257" lon="104.305727"><ele>1952.48</ele><time>2026-07-14T20:20:45.000Z</time></trkpt>
        <trkpt lat="27.8117104" lon="104.3056479"><ele>1951.93</ele><time>2026-07-14T20:20:47.000Z</time></trkpt>
        <trkpt lat="27.8115807" lon="104.3055677"><ele>1952.18</ele><time>2026-07-14T20:20:49.000Z</time></trkpt>
        <trkpt lat="27.8114444" lon="104.305491"><ele>1952.23</ele><time>2026-07-14T20:20:51.000Z</time></trkpt>
        <trkpt lat="27.8112962" lon="104.3054259"><ele>1951.74</ele><time>2026-07-14T20:20:53.000Z</time></trkpt>
        <trkpt lat="27.811147" lon="104.305361"><ele>1951.51</ele><time>2026-07-14T20:20:55.000Z</time></trkpt>
        <trkpt lat="27.8110009" lon="104.3052944"><ele>1951.55</ele><time>2026-07-14T20:20:57.000Z</time></trkpt>
        <trkpt lat="27.8108641" lon="104.3052354"><ele>1951.53</ele><time>2026-07-14T20:20:59.000Z</time></trkpt>
        <trkpt lat="27.8107558" lon="104.3051893"><ele>1951.3</ele><time>2026-07-14T20:21:01.000Z</time></trkpt>
        <trkpt lat="27.8106338" lon="104.3051159"><ele>1951.09</ele><time>2026-07-14T20:21:05.000Z</time></trkpt>
        <trkpt lat="27.8105288" lon="104.3050367"><ele>1951.26</ele><time>2026-07-14T20:21:09.000Z</time></trkpt>
        <trkpt lat="27.8104998" lon="104.305009"><ele>1952.01</ele><time>2026-07-14T20:21:11.000Z</time></trkpt>
        <trkpt lat="27.8106" lon="104.305085"><ele>1952.91</ele><time>2026-07-14T20:22:21.000Z</time></trkpt>
        <trkpt lat="27.81052" lon="104.30515"><ele>1954.58</ele><time>2026-07-14T20:24:47.000Z</time></trkpt>
        <trkpt lat="27.8104567" lon="104.305225"><ele>1954.29</ele><time>2026-07-14T20:25:11.000Z</time></trkpt>
        <trkpt lat="27.8103637" lon="104.3052521"><ele>1956.1</ele><time>2026-07-14T20:26:01.000Z</time></trkpt>
        <trkpt lat="27.8102681" lon="104.3052565"><ele>1957.69</ele><time>2026-07-14T20:26:19.000Z</time></trkpt>
        <trkpt lat="27.8102233" lon="104.305365"><ele>1959.37</ele><time>2026-07-14T20:27:29.000Z</time></trkpt>
        <trkpt lat="27.8102433" lon="104.3052467"><ele>1959.43</ele><time>2026-07-14T20:33:11.000Z</time></trkpt>
        <trkpt lat="27.81036" lon="104.3052383"><ele>1958.3</ele><time>2026-07-14T20:34:01.000Z</time></trkpt>
        <trkpt lat="27.8104908" lon="104.305206"><ele>1957.87</ele><time>2026-07-14T20:34:41.000Z</time></trkpt>
        <trkpt lat="27.8105944" lon="104.305172"><ele>1955.17</ele><time>2026-07-14T20:35:33.000Z</time></trkpt>
        <trkpt lat="27.8105894" lon="104.3050848"><ele>1955.18</ele><time>2026-07-14T20:35:47.000Z</time></trkpt>
        <trkpt lat="27.8105146" lon="104.3050012"><ele>1954.85</ele><time>2026-07-14T20:36:29.000Z</time></trkpt>
        <trkpt lat="27.8103914" lon="104.3049294"><ele>1955.9</ele><time>2026-07-14T20:36:33.000Z</time></trkpt>
        <trkpt lat="27.8102778" lon="104.3048761"><ele>1956.59</ele><time>2026-07-14T20:36:35.000Z</time></trkpt>
        <trkpt lat="27.8101682" lon="104.3048523"><ele>1957.33</ele><time>2026-07-14T20:36:37.000Z</time></trkpt>
        <trkpt lat="27.8100479" lon="104.3048759"><ele>1958.05</ele><time>2026-07-14T20:36:39.000Z</time></trkpt>
        <trkpt lat="27.8099225" lon="104.3049172"><ele>1958.07</ele><time>2026-07-14T20:36:41.000Z</time></trkpt>
        <trkpt lat="27.8097904" lon="104.3049676"><ele>1958.04</ele><time>2026-07-14T20:36:43.000Z</time></trkpt>
        <trkpt lat="27.8096592" lon="104.305007"><ele>1958.02</ele><time>2026-07-14T20:36:45.000Z</time></trkpt>
        <trkpt lat="27.809528" lon="104.3050517"><ele>1958.1</ele><time>2026-07-14T20:36:47.000Z</time></trkpt>
        <trkpt lat="27.809406" lon="104.3051115"><ele>1958.1</ele><time>2026-07-14T20:36:49.000Z</time></trkpt>
        <trkpt lat="27.8092813" lon="104.3052002"><ele>1957.76</ele><time>2026-07-14T20:36:51.000Z</time></trkpt>
        <trkpt lat="27.809149" lon="104.3053083"><ele>1957.82</ele><time>2026-07-14T20:36:53.000Z</time></trkpt>
        <trkpt lat="27.8090126" lon="104.3054238"><ele>1957.38</ele><time>2026-07-14T20:36:55.000Z</time></trkpt>
        <trkpt lat="27.8088688" lon="104.3055473"><ele>1957.35</ele><time>2026-07-14T20:36:57.000Z</time></trkpt>
        <trkpt lat="27.808729" lon="104.3056533"><ele>1958.01</ele><time>2026-07-14T20:36:59.000Z</time></trkpt>
        <trkpt lat="27.8086026" lon="104.3057505"><ele>1958.57</ele><time>2026-07-14T20:37:01.000Z</time></trkpt>
        <trkpt lat="27.8084812" lon="104.3058585"><ele>1958.71</ele><time>2026-07-14T20:37:03.000Z</time></trkpt>
        <trkpt lat="27.8083947" lon="104.3059948"><ele>1959.31</ele><time>2026-07-14T20:37:05.000Z</time></trkpt>
        <trkpt lat="27.8083392" lon="104.3061663"><ele>1960.08</ele><time>2026-07-14T20:37:07.000Z</time></trkpt>
        <trkpt lat="27.8083128" lon="104.3063577"><ele>1960.56</ele><time>2026-07-14T20:37:09.000Z</time></trkpt>
        <trkpt lat="27.8083191" lon="104.3065348"><ele>1960.84</ele><time>2026-07-14T20:37:11.000Z</time></trkpt>
        <trkpt lat="27.8083544" lon="104.3067003"><ele>1961.04</ele><time>2026-07-14T20:37:13.000Z</time></trkpt>
        <trkpt lat="27.8083704" lon="104.3068422"><ele>1961.79</ele><time>2026-07-14T20:37:15.000Z</time></trkpt>
        <trkpt lat="27.8083434" lon="104.3069557"><ele>1961.88</ele><time>2026-07-14T20:37:17.000Z</time></trkpt>
        <trkpt lat="27.8082312" lon="104.3069753"><ele>1961.85</ele><time>2026-07-14T20:37:21.000Z</time></trkpt>
        <trkpt lat="27.808146" lon="104.3068388"><ele>1962.39</ele><time>2026-07-14T20:37:25.000Z</time></trkpt>
        <trkpt lat="27.8080927" lon="104.306683"><ele>1963.73</ele><time>2026-07-14T20:37:27.000Z</time></trkpt>
        <trkpt lat="27.8080439" lon="104.3065233"><ele>1965.18</ele><time>2026-07-14T20:37:29.000Z</time></trkpt>
        <trkpt lat="27.8079932" lon="104.3063571"><ele>1966.48</ele><time>2026-07-14T20:37:31.000Z</time></trkpt>
        <trkpt lat="27.8079237" lon="104.3062026"><ele>1967.95</ele><time>2026-07-14T20:37:33.000Z</time></trkpt>
        <trkpt lat="27.8078394" lon="104.306055"><ele>1968.96</ele><time>2026-07-14T20:37:35.000Z</time></trkpt>
        <trkpt lat="27.8077531" lon="104.3059018"><ele>1970.53</ele><time>2026-07-14T20:37:37.000Z</time></trkpt>
        <trkpt lat="27.8076573" lon="104.3057429"><ele>1971.72</ele><time>2026-07-14T20:37:39.000Z</time></trkpt>
        <trkpt lat="27.8075601" lon="104.3055796"><ele>1973.6</ele><time>2026-07-14T20:37:41.000Z</time></trkpt>
        <trkpt lat="27.8074709" lon="104.305409"><ele>1975.32</ele><time>2026-07-14T20:37:43.000Z</time></trkpt>
        <trkpt lat="27.8073864" lon="104.3052387"><ele>1976.99</ele><time>2026-07-14T20:37:45.000Z</time></trkpt>
        <trkpt lat="27.807321" lon="104.3050879"><ele>1978.67</ele><time>2026-07-14T20:37:47.000Z</time></trkpt>
        <trkpt lat="27.8072835" lon="104.3049609"><ele>1980.06</ele><time>2026-07-14T20:37:49.000Z</time></trkpt>
        <trkpt lat="27.8072538" lon="104.3047816"><ele>1982.19</ele><time>2026-07-14T20:37:53.000Z</time></trkpt>
        <trkpt lat="27.8072272" lon="104.3046453"><ele>1984.56</ele><time>2026-07-14T20:37:55.000Z</time></trkpt>
        <trkpt lat="27.8072065" lon="104.3045178"><ele>1986.64</ele><time>2026-07-14T20:37:57.000Z</time></trkpt>
        <trkpt lat="27.8071931" lon="104.3043897"><ele>1988.39</ele><time>2026-07-14T20:37:59.000Z</time></trkpt>
        <trkpt lat="27.8071741" lon="104.3042364"><ele>1989.17</ele><time>2026-07-14T20:38:03.000Z</time></trkpt>
        <trkpt lat="27.8071609" lon="104.3041685"><ele>1988.41</ele><time>2026-07-14T20:38:05.000Z</time></trkpt>
        <trkpt lat="27.8071147" lon="104.3040414"><ele>1987.72</ele><time>2026-07-14T20:38:45.000Z</time></trkpt>
        <trkpt lat="27.807071" lon="104.3039074"><ele>1988.35</ele><time>2026-07-14T20:38:47.000Z</time></trkpt>
        <trkpt lat="27.807031" lon="104.3037731"><ele>1988.37</ele><time>2026-07-14T20:38:49.000Z</time></trkpt>
        <trkpt lat="27.8069994" lon="104.3036422"><ele>1988.13</ele><time>2026-07-14T20:38:51.000Z</time></trkpt>
        <trkpt lat="27.8069999" lon="104.303503"><ele>1987.69</ele><time>2026-07-14T20:38:54.000Z</time></trkpt>
        <trkpt lat="27.8070405" lon="104.3033509"><ele>1987.05</ele><time>2026-07-14T20:38:55.000Z</time></trkpt>
        <trkpt lat="27.8070875" lon="104.3031883"><ele>1985.82</ele><time>2026-07-14T20:38:57.000Z</time></trkpt>
        <trkpt lat="27.8071449" lon="104.3030328"><ele>1984.09</ele><time>2026-07-14T20:38:59.000Z</time></trkpt>
        <trkpt lat="27.8072154" lon="104.3028873"><ele>1982.55</ele><time>2026-07-14T20:39:01.000Z</time></trkpt>
        <trkpt lat="27.8072525" lon="104.3027344"><ele>1980.94</ele><time>2026-07-14T20:39:03.000Z</time></trkpt>
        <trkpt lat="27.8072547" lon="104.3025795"><ele>1979.37</ele><time>2026-07-14T20:39:05.000Z</time></trkpt>
        <trkpt lat="27.807225" lon="104.3024291"><ele>1978.01</ele><time>2026-07-14T20:39:07.000Z</time></trkpt>
        <trkpt lat="27.8071623" lon="104.3023019"><ele>1976.97</ele><time>2026-07-14T20:39:09.000Z</time></trkpt>
        <trkpt lat="27.8070894" lon="104.302183"><ele>1976.21</ele><time>2026-07-14T20:39:11.000Z</time></trkpt>
        <trkpt lat="27.8070323" lon="104.3020657"><ele>1975.52</ele><time>2026-07-14T20:39:13.000Z</time></trkpt>
        <trkpt lat="27.8070086" lon="104.3019329"><ele>1974.74</ele><time>2026-07-14T20:39:15.000Z</time></trkpt>
        <trkpt lat="27.8070099" lon="104.3018049"><ele>1973.34</ele><time>2026-07-14T20:39:17.000Z</time></trkpt>
        <trkpt lat="27.807025" lon="104.3016842"><ele>1972.25</ele><time>2026-07-14T20:39:19.000Z</time></trkpt>
        <trkpt lat="27.8070115" lon="104.3015799"><ele>1971.2</ele><time>2026-07-14T20:39:21.000Z</time></trkpt>
        <trkpt lat="27.8069006" lon="104.3015526"><ele>1970.34</ele><time>2026-07-14T20:39:25.000Z</time></trkpt>
        <trkpt lat="27.8068235" lon="104.3016275"><ele>1968.51</ele><time>2026-07-14T20:39:27.000Z</time></trkpt>
        <trkpt lat="27.8067781" lon="104.3017611"><ele>1967.05</ele><time>2026-07-14T20:39:29.000Z</time></trkpt>
        <trkpt lat="27.8067442" lon="104.3019193"><ele>1965.52</ele><time>2026-07-14T20:39:31.000Z</time></trkpt>
        <trkpt lat="27.8067209" lon="104.3020853"><ele>1964.18</ele><time>2026-07-14T20:39:33.000Z</time></trkpt>
        <trkpt lat="27.8066964" lon="104.3022362"><ele>1963.28</ele><time>2026-07-14T20:39:35.000Z</time></trkpt>
        <trkpt lat="27.8066578" lon="104.3023708"><ele>1961.83</ele><time>2026-07-14T20:39:37.000Z</time></trkpt>
        <trkpt lat="27.8066109" lon="104.3024848"><ele>1960.48</ele><time>2026-07-14T20:39:39.000Z</time></trkpt>
        <trkpt lat="27.8065389" lon="104.3025817"><ele>1959.07</ele><time>2026-07-14T20:39:41.000Z</time></trkpt>
        <trkpt lat="27.8064521" lon="104.3026799"><ele>1958.05</ele><time>2026-07-14T20:39:43.000Z</time></trkpt>
        <trkpt lat="27.806368" lon="104.3027739"><ele>1957.34</ele><time>2026-07-14T20:39:45.000Z</time></trkpt>
        <trkpt lat="27.8062853" lon="104.3028485"><ele>1956.42</ele><time>2026-07-14T20:39:47.000Z</time></trkpt>
        <trkpt lat="27.8062002" lon="104.3029242"><ele>1955.46</ele><time>2026-07-14T20:39:51.000Z</time></trkpt>
        <trkpt lat="27.8061371" lon="104.3030041"><ele>1953.8</ele><time>2026-07-14T20:40:29.000Z</time></trkpt>
        <trkpt lat="27.806185" lon="104.303095"><ele>1952.38</ele><time>2026-07-14T20:41:49.000Z</time></trkpt>
        <trkpt lat="27.8062817" lon="104.3031067"><ele>1953.21</ele><time>2026-07-14T20:42:03.000Z</time></trkpt>
        <trkpt lat="27.8063741" lon="104.3030929"><ele>1953.38</ele><time>2026-07-14T20:42:23.000Z</time></trkpt>
        <trkpt lat="27.8064722" lon="104.3030953"><ele>1955.67</ele><time>2026-07-14T20:42:43.000Z</time></trkpt>
        <trkpt lat="27.806542" lon="104.303159"><ele>1957.92</ele><time>2026-07-14T20:43:05.000Z</time></trkpt>
        <trkpt lat="27.8066117" lon="104.30312"><ele>1960.23</ele><time>2026-07-14T20:44:31.000Z</time></trkpt>
        <trkpt lat="27.8065667" lon="104.3032133"><ele>1962.76</ele><time>2026-07-14T20:45:07.000Z</time></trkpt>
        <trkpt lat="27.806485" lon="104.3031683"><ele>1964.28</ele><time>2026-07-14T20:50:15.000Z</time></trkpt>
        <trkpt lat="27.806415" lon="104.303085"><ele>1964.98</ele><time>2026-07-14T20:50:31.000Z</time></trkpt>
        <trkpt lat="27.8063238" lon="104.3030806"><ele>1965.63</ele><time>2026-07-14T20:50:51.000Z</time></trkpt>
        <trkpt lat="27.8062328" lon="104.3030864"><ele>1965.32</ele><time>2026-07-14T20:51:31.000Z</time></trkpt>
        <trkpt lat="27.8061292" lon="104.3030882"><ele>1964.15</ele><time>2026-07-14T20:51:49.000Z</time></trkpt>
        <trkpt lat="27.8059812" lon="104.3030585"><ele>1960.47</ele><time>2026-07-14T20:52:35.000Z</time></trkpt>
        <trkpt lat="27.8058054" lon="104.3030362"><ele>1957.82</ele><time>2026-07-14T20:52:39.000Z</time></trkpt>
        <trkpt lat="27.8056824" lon="104.3030114"><ele>1956.26</ele><time>2026-07-14T20:52:41.000Z</time></trkpt>
        <trkpt lat="27.8055819" lon="104.302976"><ele>1954.69</ele><time>2026-07-14T20:52:43.000Z</time></trkpt>
        <trkpt lat="27.8054745" lon="104.3029468"><ele>1953.49</ele><time>2026-07-14T20:52:45.000Z</time></trkpt>
        <trkpt lat="27.805364" lon="104.3029183"><ele>1952.33</ele><time>2026-07-14T20:52:47.000Z</time></trkpt>
        <trkpt lat="27.8052592" lon="104.3028886"><ele>1951.11</ele><time>2026-07-14T20:52:49.000Z</time></trkpt>
        <trkpt lat="27.8051514" lon="104.3028686"><ele>1950.03</ele><time>2026-07-14T20:52:51.000Z</time></trkpt>
        <trkpt lat="27.8050508" lon="104.3028522"><ele>1949.12</ele><time>2026-07-14T20:52:53.000Z</time></trkpt>
        <trkpt lat="27.8049528" lon="104.3028429"><ele>1948.51</ele><time>2026-07-14T20:52:55.000Z</time></trkpt>
        <trkpt lat="27.804844" lon="104.3028481"><ele>1947.86</ele><time>2026-07-14T20:52:57.000Z</time></trkpt>
        <trkpt lat="27.8047285" lon="104.3028594"><ele>1947.4</ele><time>2026-07-14T20:52:59.000Z</time></trkpt>
        <trkpt lat="27.8046084" lon="104.3028654"><ele>1947.19</ele><time>2026-07-14T20:53:01.000Z</time></trkpt>
        <trkpt lat="27.8044859" lon="104.3028623"><ele>1947.02</ele><time>2026-07-14T20:53:03.000Z</time></trkpt>
        <trkpt lat="27.8043694" lon="104.302832"><ele>1946.19</ele><time>2026-07-14T20:53:05.000Z</time></trkpt>
        <trkpt lat="27.8042605" lon="104.3027757"><ele>1944.99</ele><time>2026-07-14T20:53:07.000Z</time></trkpt>
        <trkpt lat="27.8041655" lon="104.3027067"><ele>1943.66</ele><time>2026-07-14T20:53:09.000Z</time></trkpt>
        <trkpt lat="27.804074" lon="104.3026353"><ele>1943.03</ele><time>2026-07-14T20:53:11.000Z</time></trkpt>
        <trkpt lat="27.8039851" lon="104.3025663"><ele>1942.67</ele><time>2026-07-14T20:53:13.000Z</time></trkpt>
        <trkpt lat="27.8038878" lon="104.3024967"><ele>1942.56</ele><time>2026-07-14T20:53:15.000Z</time></trkpt>
        <trkpt lat="27.8038018" lon="104.3024463"><ele>1942.58</ele><time>2026-07-14T20:53:17.000Z</time></trkpt>
        <trkpt lat="27.8038968" lon="104.3025133"><ele>1942.28</ele><time>2026-07-14T20:53:31.000Z</time></trkpt>
        <trkpt lat="27.8040247" lon="104.3025972"><ele>1940.23</ele><time>2026-07-14T20:53:33.000Z</time></trkpt>
        <trkpt lat="27.8041658" lon="104.302688"><ele>1939.4</ele><time>2026-07-14T20:53:35.000Z</time></trkpt>
        <trkpt lat="27.8042958" lon="104.3027754"><ele>1938.84</ele><time>2026-07-14T20:53:37.000Z</time></trkpt>
        <trkpt lat="27.8044258" lon="104.3028325"><ele>1939.12</ele><time>2026-07-14T20:53:39.000Z</time></trkpt>
        <trkpt lat="27.8045554" lon="104.3028659"><ele>1938.9</ele><time>2026-07-14T20:53:41.000Z</time></trkpt>
        <trkpt lat="27.8046976" lon="104.3028741"><ele>1938.25</ele><time>2026-07-14T20:53:43.000Z</time></trkpt>
        <trkpt lat="27.8048489" lon="104.3028649"><ele>1937.67</ele><time>2026-07-14T20:53:45.000Z</time></trkpt>
        <trkpt lat="27.8049989" lon="104.302858"><ele>1938.03</ele><time>2026-07-14T20:53:47.000Z</time></trkpt>
        <trkpt lat="27.8051348" lon="104.3028678"><ele>1939.18</ele><time>2026-07-14T20:53:49.000Z</time></trkpt>
        <trkpt lat="27.8052752" lon="104.3028923"><ele>1940.43</ele><time>2026-07-14T20:53:51.000Z</time></trkpt>
        <trkpt lat="27.8054115" lon="104.3029306"><ele>1941.5</ele><time>2026-07-14T20:53:53.000Z</time></trkpt>
        <trkpt lat="27.8055625" lon="104.3029641"><ele>1942.49</ele><time>2026-07-14T20:53:55.000Z</time></trkpt>
        <trkpt lat="27.8057118" lon="104.3029896"><ele>1943.52</ele><time>2026-07-14T20:53:57.000Z</time></trkpt>
        <trkpt lat="27.8058471" lon="104.3030168"><ele>1945.02</ele><time>2026-07-14T20:53:59.000Z</time></trkpt>
        <trkpt lat="27.8059608" lon="104.303041"><ele>1946.3</ele><time>2026-07-14T20:54:01.000Z</time></trkpt>
        <trkpt lat="27.8060597" lon="104.3030555"><ele>1947.42</ele><time>2026-07-14T20:54:03.000Z</time></trkpt>
        <trkpt lat="27.806136" lon="104.3030364"><ele>1948.74</ele><time>2026-07-14T20:54:07.000Z</time></trkpt>
        <trkpt lat="27.806024" lon="104.3030346"><ele>1950.02</ele><time>2026-07-14T20:54:29.000Z</time></trkpt>
        <trkpt lat="27.8058904" lon="104.3030187"><ele>1952.33</ele><time>2026-07-14T20:54:31.000Z</time></trkpt>
        <trkpt lat="27.8057429" lon="104.3029965"><ele>1953.87</ele><time>2026-07-14T20:54:33.000Z</time></trkpt>
        <trkpt lat="27.8055962" lon="104.3029643"><ele>1954.14</ele><time>2026-07-14T20:54:35.000Z</time></trkpt>
        <trkpt lat="27.8054431" lon="104.3029266"><ele>1953.52</ele><time>2026-07-14T20:54:37.000Z</time></trkpt>
        <trkpt lat="27.8052852" lon="104.3028842"><ele>1952.39</ele><time>2026-07-14T20:54:40.000Z</time></trkpt>
        <trkpt lat="27.8051333" lon="104.3028509"><ele>1951.58</ele><time>2026-07-14T20:54:41.000Z</time></trkpt>
        <trkpt lat="27.804996" lon="104.3028379"><ele>1951.11</ele><time>2026-07-14T20:54:43.000Z</time></trkpt>
        <trkpt lat="27.8048606" lon="104.3028434"><ele>1950.76</ele><time>2026-07-14T20:54:45.000Z</time></trkpt>
        <trkpt lat="27.8047277" lon="104.3028571"><ele>1950.35</ele><time>2026-07-14T20:54:47.000Z</time></trkpt>
        <trkpt lat="27.804589" lon="104.3028683"><ele>1949.25</ele><time>2026-07-14T20:54:49.000Z</time></trkpt>
        <trkpt lat="27.8044516" lon="104.3028635"><ele>1947.85</ele><time>2026-07-14T20:54:51.000Z</time></trkpt>
        <trkpt lat="27.8043223" lon="104.3028298"><ele>1947.14</ele><time>2026-07-14T20:54:53.000Z</time></trkpt>
        <trkpt lat="27.8042022" lon="104.302746"><ele>1946.35</ele><time>2026-07-14T20:54:55.000Z</time></trkpt>
        <trkpt lat="27.8040825" lon="104.302647"><ele>1945.43</ele><time>2026-07-14T20:54:57.000Z</time></trkpt>
        <trkpt lat="27.8039559" lon="104.3025563"><ele>1944.42</ele><time>2026-07-14T20:54:59.000Z</time></trkpt>
        <trkpt lat="27.803834" lon="104.3024652"><ele>1943.34</ele><time>2026-07-14T20:55:01.000Z</time></trkpt>
        <trkpt lat="27.8037126" lon="104.3023812"><ele>1942.72</ele><time>2026-07-14T20:55:03.000Z</time></trkpt>
        <trkpt lat="27.8035963" lon="104.3022966"><ele>1941.68</ele><time>2026-07-14T20:55:05.000Z</time></trkpt>
        <trkpt lat="27.8034767" lon="104.3022293"><ele>1940.83</ele><time>2026-07-14T20:55:07.000Z</time></trkpt>
        <trkpt lat="27.8033492" lon="104.302192"><ele>1939.91</ele><time>2026-07-14T20:55:09.000Z</time></trkpt>
        <trkpt lat="27.8032177" lon="104.3021635"><ele>1939.39</ele><time>2026-07-14T20:55:11.000Z</time></trkpt>
        <trkpt lat="27.8030814" lon="104.3021524"><ele>1939.01</ele><time>2026-07-14T20:55:13.000Z</time></trkpt>
        <trkpt lat="27.8029512" lon="104.3021359"><ele>1939.18</ele><time>2026-07-14T20:55:15.000Z</time></trkpt>
        <trkpt lat="27.8028414" lon="104.3021521"><ele>1939.01</ele><time>2026-07-14T20:55:17.000Z</time></trkpt>
        <trkpt lat="27.8027502" lon="104.3022057"><ele>1938.62</ele><time>2026-07-14T20:55:19.000Z</time></trkpt>
        <trkpt lat="27.8026621" lon="104.3023022"><ele>1938.18</ele><time>2026-07-14T20:55:21.000Z</time></trkpt>
        <trkpt lat="27.802566" lon="104.30242"><ele>1937.29</ele><time>2026-07-14T20:55:23.000Z</time></trkpt>
        <trkpt lat="27.8024634" lon="104.302524"><ele>1936.26</ele><time>2026-07-14T20:55:25.000Z</time></trkpt>
        <trkpt lat="27.8023572" lon="104.3026271"><ele>1934.9</ele><time>2026-07-14T20:55:27.000Z</time></trkpt>
        <trkpt lat="27.8022574" lon="104.3027339"><ele>1933.31</ele><time>2026-07-14T20:55:29.000Z</time></trkpt>
        <trkpt lat="27.8021602" lon="104.3028541"><ele>1931.11</ele><time>2026-07-14T20:55:31.000Z</time></trkpt>
        <trkpt lat="27.8020615" lon="104.3029787"><ele>1929</ele><time>2026-07-14T20:55:33.000Z</time></trkpt>
        <trkpt lat="27.8019556" lon="104.3030664"><ele>1927.41</ele><time>2026-07-14T20:55:35.000Z</time></trkpt>
        <trkpt lat="27.8018458" lon="104.3031098"><ele>1925.94</ele><time>2026-07-14T20:55:37.000Z</time></trkpt>
        <trkpt lat="27.8017388" lon="104.3031111"><ele>1925.02</ele><time>2026-07-14T20:55:39.000Z</time></trkpt>
        <trkpt lat="27.8016331" lon="104.3030803"><ele>1924.19</ele><time>2026-07-14T20:55:41.000Z</time></trkpt>
        <trkpt lat="27.8015368" lon="104.3030067"><ele>1923.72</ele><time>2026-07-14T20:55:43.000Z</time></trkpt>
        <trkpt lat="27.8014488" lon="104.3029051"><ele>1923.67</ele><time>2026-07-14T20:55:45.000Z</time></trkpt>
        <trkpt lat="27.8013647" lon="104.3027977"><ele>1923.68</ele><time>2026-07-14T20:55:47.000Z</time></trkpt>
        <trkpt lat="27.8012925" lon="104.3026745"><ele>1923.56</ele><time>2026-07-14T20:55:49.000Z</time></trkpt>
        <trkpt lat="27.801229" lon="104.3025417"><ele>1923.06</ele><time>2026-07-14T20:55:51.000Z</time></trkpt>
        <trkpt lat="27.8011753" lon="104.3024037"><ele>1922.17</ele><time>2026-07-14T20:55:53.000Z</time></trkpt>
        <trkpt lat="27.8011191" lon="104.302263"><ele>1921.33</ele><time>2026-07-14T20:55:55.000Z</time></trkpt>
        <trkpt lat="27.8010547" lon="104.3021249"><ele>1921.01</ele><time>2026-07-14T20:55:57.000Z</time></trkpt>
        <trkpt lat="27.8009743" lon="104.3019873"><ele>1920.28</ele><time>2026-07-14T20:55:59.000Z</time></trkpt>
        <trkpt lat="27.8008846" lon="104.3018552"><ele>1919.17</ele><time>2026-07-14T20:56:01.000Z</time></trkpt>
        <trkpt lat="27.80079" lon="104.301734"><ele>1917.5</ele><time>2026-07-14T20:56:03.000Z</time></trkpt>
        <trkpt lat="27.8006983" lon="104.3016202"><ele>1915.39</ele><time>2026-07-14T20:56:05.000Z</time></trkpt>
        <trkpt lat="27.8005948" lon="104.301521"><ele>1913.89</ele><time>2026-07-14T20:56:07.000Z</time></trkpt>
        <trkpt lat="27.8004947" lon="104.301425"><ele>1912.69</ele><time>2026-07-14T20:56:09.000Z</time></trkpt>
        <trkpt lat="27.800398" lon="104.3013466"><ele>1912.22</ele><time>2026-07-14T20:56:11.000Z</time></trkpt>
        <trkpt lat="27.8002876" lon="104.3013037"><ele>1911.65</ele><time>2026-07-14T20:56:13.000Z</time></trkpt>
        <trkpt lat="27.800166" lon="104.3012875"><ele>1910.81</ele><time>2026-07-14T20:56:15.000Z</time></trkpt>
        <trkpt lat="27.8000385" lon="104.3012684"><ele>1910.12</ele><time>2026-07-14T20:56:17.000Z</time></trkpt>
        <trkpt lat="27.7999148" lon="104.3012377"><ele>1908.99</ele><time>2026-07-14T20:56:19.000Z</time></trkpt>
        <trkpt lat="27.7997896" lon="104.3012053"><ele>1908.35</ele><time>2026-07-14T20:56:21.000Z</time></trkpt>
        <trkpt lat="27.7996666" lon="104.3011783"><ele>1908.29</ele><time>2026-07-14T20:56:23.000Z</time></trkpt>
        <trkpt lat="27.7995534" lon="104.3011522"><ele>1907.52</ele><time>2026-07-14T20:56:25.000Z</time></trkpt>
        <trkpt lat="27.7994475" lon="104.3011248"><ele>1906.35</ele><time>2026-07-14T20:56:27.000Z</time></trkpt>
        <trkpt lat="27.7993475" lon="104.3010792"><ele>1905.6</ele><time>2026-07-14T20:56:29.000Z</time></trkpt>
        <trkpt lat="27.799254" lon="104.3009894"><ele>1905.25</ele><time>2026-07-14T20:56:33.000Z</time></trkpt>
        <trkpt lat="27.799226" lon="104.3009533"><ele>1904.41</ele><time>2026-07-14T20:56:35.000Z</time></trkpt>
        <trkpt lat="27.7992338" lon="104.3010299"><ele>1903.42</ele><time>2026-07-14T20:57:27.000Z</time></trkpt>
        <trkpt lat="27.7992494" lon="104.3011401"><ele>1903.93</ele><time>2026-07-14T20:57:54.000Z</time></trkpt>
        <trkpt lat="27.7992813" lon="104.3012656"><ele>1902.71</ele><time>2026-07-14T20:58:17.000Z</time></trkpt>
        <trkpt lat="27.7993229" lon="104.3013775"><ele>1902.96</ele><time>2026-07-14T20:58:33.000Z</time></trkpt>
        <trkpt lat="27.7993857" lon="104.301463"><ele>1905.73</ele><time>2026-07-14T20:59:07.000Z</time></trkpt>
        <trkpt lat="27.7994171" lon="104.3015603"><ele>1910.49</ele><time>2026-07-14T20:59:29.000Z</time></trkpt>
        <trkpt lat="27.7994173" lon="104.3016613"><ele>1913.51</ele><time>2026-07-14T20:59:57.000Z</time></trkpt>
        <trkpt lat="27.7994067" lon="104.3017686"><ele>1915.14</ele><time>2026-07-14T21:00:19.000Z</time></trkpt>
        <trkpt lat="27.79938" lon="104.3018717"><ele>1916.28</ele><time>2026-07-14T21:01:25.000Z</time></trkpt>
        <trkpt lat="27.799405" lon="104.301975"><ele>1918.66</ele><time>2026-07-14T21:01:39.000Z</time></trkpt>
        <trkpt lat="27.7994046" lon="104.3020797"><ele>1919.71</ele><time>2026-07-14T21:01:57.000Z</time></trkpt>
        <trkpt lat="27.7994046" lon="104.3020797"><ele>1919.71</ele><time>2026-07-14T21:06:42.000Z</time></trkpt>
      </trkseg>
  </trk>
</gpx>